Hlavní strana
METAR-TAF:

METAR-TAF

Letiště :

Bergen, Norsko

zeměpisná šířka: 60-17N, zeměpisná délka: 005-14E, výška: 5 m

Aktuální stav počasí

Zpráva byla vytvořena před 34 minutami, v 07:20 UTC
Bezvětří
Teplota 14°C
Vlhkost vzduchu 67%
Tlak 1010 hPa
Viditelnost 10 km a více
Žádná oblačnost pod 1500 m, nevyskytují se cumulonimby.

METAR: ENBR 260720Z 00000KT CAVOK 14/08 Q1010 NOSIG RMK WIND 1200FT 11010KT

Čas: 09:54 (07:54 UTC)

Předpověď počasí

Předpověď platná od 26 v 06 UTC do 27 v 06 UTC
vítr z různých směrů 7 kt
Viditelnost 10 km a více
Skoro jasno ve výšce 2000 ft
Oblačno až skoro zataženo ve výšce 5000 ft
Dočasný
od 27 v 03 UTC do 27 v 06 UTC
Viditelnost: 4000 m
Oblačno až skoro zataženo ve výšce 1200 ft
déšť

TAF: ENBR 2606/2706 VRB07KT 9999 FEW020 BKN050 TEMPO 2703/2706 4000 RA BKN012

Stav a předpovědi počasí z více než 4 000 letišť (zprávy METAR a TAF).

Červené a žluté tečky na mapě představují dostupné meteorologické stanice.

Když kurzor umístíte na tečku, zobrazí se název stanice.

Pak kliknutím zobrazíte stav a předpověď počasí.

Chcete-li změnit mapu, kliknutím na zelené tlačítko se znaménkem +mapu přiblížíte, kliknutím na zelené tlačítko se znaménkem – mapu oddálíte a kliknutím na zelené šipky přejdete na sousední mapy.


METAR-TAF: